Flight Track Log - Related Links

Times and Time Zones

All times are in EDT time to prevent confusion due to time zone crossing. See the CKS248A flight status page for this flight to view local times or setup timezone preferences in your user account.

Time Position Orientation Groundspeed Altitude Reporting Facility
EDT Latitude Longitude Course Direction KTS MPH feet Rate Location/Type
Thu 05:04:00 PM 57.5298 -18.1044 253° West  Level Estimated
Thu 05:05:00 PM 57.5722 -18.3182 290° West  Level FlightAware Approximate
Thu 05:06:00 PM 57.6142 -18.5326 290° West  Level FlightAware Approximate
Thu 05:07:00 PM 57.6559 -18.7474 290° West  Level FlightAware Approximate
Thu 05:08:00 PM 57.6675 -18.9739 276° West  Level Estimated
Thu 05:09:00 PM 57.6788 -19.2005 275° West  Level Estimated
Thu 05:10:00 PM 57.6896 -19.4272 275° West  Level Estimated
Thu 05:11:00 PM 57.7000 -19.6541 275° West  Level Estimated
Thu 05:12:00 PM 57.7100 -19.8811 275° West  Level Estimated
Thu 05:13:00 PM 57.7197 -20.1082 275° West  Level Estimated
Thu 05:14:00 PM 57.7289 -20.3354 274° West  Level Estimated
Thu 05:15:00 PM 57.7377 -20.5627 274° West  Level Estimated
Thu 05:16:00 PM 57.7461 -20.7902 274° West  Level Estimated
Thu 05:17:00 PM 57.7540 -21.0177 274° West  Level Estimated
Thu 05:18:00 PM 57.7616 -21.2454 274° West  Level Estimated
Thu 05:19:00 PM 57.7688 -21.4731 273° West  Level Estimated
Thu 05:20:00 PM 57.7756 -21.7010 273° West  Level Estimated
Thu 05:21:00 PM 57.7819 -21.9289 273° West  Level Estimated
Thu 05:22:00 PM 57.7878 -22.1569 273° West  Level Estimated
Thu 05:23:00 PM 57.7934 -22.3849 273° West  Level Estimated
Thu 05:24:00 PM 57.7985 -22.6131 273° West  Level Estimated
Thu 05:25:00 PM 57.8032 -22.8412 272° West  Level Estimated
Thu 05:26:00 PM 57.8075 -23.0695 272° West  Level Estimated
Thu 05:27:00 PM 57.8114 -23.2978 272° West  Level Estimated
Thu 05:27:27 PM 60.0000 -20.0000 286° West 451 519 30,000  Level ETMS Enhanced Traffic Management System
Thu 05:28:00 PM 57.8149 -23.5261 272° West  Level Estimated
Thu 05:29:00 PM 57.8179 -23.7545 272° West  Level Estimated
Thu 05:30:00 PM 57.8206 -23.9830 271° West  Level Estimated
Thu 05:31:00 PM 57.8228 -24.2114 271° West  Level Estimated
Thu 05:32:00 PM 57.8247 -24.4399 271° West  Level Estimated
Thu 05:33:00 PM 60.2284 -21.7023 284° West 451 519 30,000  Level FlightAware Transoceanic
Thu 05:34:00 PM 60.2592 -21.9474 284° West 451 519 30,000  Level FlightAware Transoceanic
Thu 05:35:00 PM 60.2896 -22.1930 284° West 451 519 30,000  Level FlightAware Transoceanic
Thu 05:36:00 PM 60.3195 -22.4390 284° West 451 519 30,000  Level FlightAware Transoceanic
Thu 05:37:00 PM 60.3490 -22.6854 283° West 451 519 30,000  Level FlightAware Transoceanic
Thu 05:38:00 PM 60.3780 -22.9323 283° West 451 519 30,000  Level FlightAware Transoceanic
Thu 05:39:00 PM 60.4066 -23.1796 283° West 451 519 30,000  Level FlightAware Transoceanic
Thu 05:40:00 PM 60.4346 -23.4274 283° West 451 519 30,000  Level FlightAware Transoceanic
Thu 05:41:00 PM 60.4623 -23.6756 283° West 451 519 30,000  Level FlightAware Transoceanic
Thu 05:42:00 PM 60.4894 -23.9242 282° West 451 519 30,000  Level FlightAware Transoceanic
Thu 05:43:00 PM 60.5162 -24.1732 282° West 451 519 30,000  Level FlightAware Transoceanic
Thu 05:44:00 PM 60.5424 -24.4226 282° West 451 519 30,000  Level FlightAware Transoceanic
Thu 05:45:00 PM 60.5682 -24.6725 282° West 451 519 30,000  Level FlightAware Transoceanic
Thu 05:46:00 PM 60.5935 -24.9227 282° West 451 519 30,000  Level FlightAware Transoceanic
Thu 05:47:00 PM 60.6184 -25.1733 281° West 451 519 30,000  Level FlightAware Transoceanic
Thu 05:48:00 PM 60.6427 -25.4243 281° West 451 519 30,000  Level FlightAware Transoceanic
Thu 05:49:00 PM 60.6666 -25.6756 281° West 451 519 30,000  Level FlightAware Transoceanic
Thu 05:50:00 PM 60.6901 -25.9274 281° West 451 519 30,000  Level FlightAware Transoceanic
Thu 05:51:00 PM 60.7130 -26.1795 280° West 451 519 30,000  Level FlightAware Transoceanic
Thu 05:52:00 PM 60.7355 -26.4319 280° West 451 519 30,000  Level FlightAware Transoceanic
Thu 05:53:00 PM 60.7575 -26.6848 280° West 451 519 30,000  Level FlightAware Transoceanic
Thu 05:54:00 PM 60.7791 -26.9379 280° West 451 519 30,000  Level FlightAware Transoceanic
Thu 05:55:00 PM 60.8001 -27.1914 280° West 451 519 30,000  Level FlightAware Transoceanic
Thu 05:56:00 PM 60.8207 -27.4452 279° West 451 519 30,000  Level FlightAware Transoceanic
Thu 05:57:00 PM 60.8408 -27.6994 279° West 451 519 30,000  Level FlightAware Transoceanic
Thu 05:58:00 PM 60.8604 -27.9538 279° West 451 519 30,000  Level FlightAware Transoceanic
Thu 05:59:00 PM 60.8796 -28.2086 279° West 451 519 30,000  Level FlightAware Transoceanic
Thu 06:00:00 PM 60.8982 -28.4636 278° West 451 519 30,000  Level FlightAware Transoceanic
Thu 06:01:00 PM 60.9164 -28.7190 278° West 451 519 30,000  Level FlightAware Transoceanic
Thu 06:02:00 PM 60.9341 -28.9747 278° West 451 519 30,000  Level FlightAware Transoceanic
Thu 06:03:00 PM 60.9513 -29.2306 278° West 451 519 30,000  Level FlightAware Transoceanic
Thu 06:04:00 PM 60.9680 -29.4868 278° West 451 519 30,000  Level FlightAware Transoceanic
Thu 06:05:00 PM 60.9842 -29.7433 277° West 451 519 30,000 19 Level FlightAware Transoceanic
Thu 06:06:00 PM 60.9995 -29.9922 277° West  Level FlightAware Approximate
Thu 06:07:00 PM 61.0144 -30.2414 277° West  Level FlightAware Approximate
Thu 06:08:00 PM 61.0085 -30.2347 274° West  Level FlightAware Approximate
Thu 06:09:00 PM 61.0171 -30.4852 274° West  Level FlightAware Approximate
Thu 06:10:00 PM 61.0253 -30.7358 274° West  Level FlightAware Approximate
Thu 06:11:00 PM 61.0330 -30.9865 274° West  Level FlightAware Approximate
Thu 06:12:00 PM 61.0402 -31.2374 274° West  Level FlightAware Approximate
Thu 06:13:00 PM 61.0469 -31.4883 273° West  Level FlightAware Approximate
Thu 06:14:00 PM 61.0532 -31.7394 273° West  Level FlightAware Approximate
Thu 06:15:00 PM 61.0591 -31.9905 273° West  Level FlightAware Approximate
Thu 06:16:00 PM 61.0644 -32.2418 273° West  Level FlightAware Approximate
Thu 06:17:00 PM 61.0693 -32.4931 272° West  Level FlightAware Approximate
Thu 06:18:00 PM 61.0737 -32.7445 272° West  Level FlightAware Approximate
Thu 06:19:00 PM 61.0777 -32.9960 272° West  Level FlightAware Approximate
Thu 06:20:00 PM 61.0812 -33.2475 272° West  Level FlightAware Approximate
Thu 06:21:00 PM 61.0842 -33.4991 272° West  Level FlightAware Approximate
Thu 06:22:00 PM 61.0868 -33.7507 271° West  Level FlightAware Approximate
Thu 06:23:00 PM 61.0889 -34.0024 271° West  Level FlightAware Approximate
Thu 06:24:00 PM 61.0905 -34.2541 271° West  Level FlightAware Approximate
Thu 06:25:00 PM 61.0916 -34.5058 271° West  Level FlightAware Approximate
Thu 06:26:00 PM 61.0923 -34.7575 270° West  Level FlightAware Approximate
Thu 06:27:00 PM 61.0925 -35.0092 270° West  Level FlightAware Approximate
Thu 06:28:00 PM 61.0923 -35.2610 270° West  Level FlightAware Approximate
Thu 06:29:00 PM 61.0916 -35.5127 270° West  Level FlightAware Approximate
Thu 06:30:00 PM 61.0904 -35.7644 270° West  Level FlightAware Approximate
Thu 06:31:00 PM 61.0887 -36.0161 269° West  Level FlightAware Approximate
Thu 06:32:00 PM 61.0866 -36.2677 269° West  Level FlightAware Approximate
Thu 06:33:00 PM 61.0840 -36.5194 269° West  Level FlightAware Approximate
Thu 06:34:00 PM 61.0810 -36.7710 269° West  Level FlightAware Approximate
Thu 06:35:00 PM 61.0774 -37.0225 268° West  Level FlightAware Approximate
Thu 06:36:00 PM 61.0734 -37.2739 268° West  Level FlightAware Approximate
Thu 06:37:00 PM 61.0690 -37.5253 268° West  Level FlightAware Approximate
Thu 06:38:00 PM 61.0640 -37.7766 268° West  Level FlightAware Approximate
Thu 06:39:00 PM 61.0587 -38.0279 268° West  Level FlightAware Approximate
Thu 06:40:00 PM 61.0528 -38.2790 267° West  Level FlightAware Approximate
Thu 06:41:00 PM 61.0465 -38.5301 267° West  Level FlightAware Approximate
Thu 06:42:00 PM 61.0397 -38.7810 267° West  Level FlightAware Approximate
Thu 06:43:00 PM 61.0324 -39.0319 267° West  Level FlightAware Approximate
Thu 06:44:00 PM 61.0247 -39.2826 266° West  Level FlightAware Approximate
Thu 06:45:00 PM 61.0165 -39.5332 266° West  Level FlightAware Approximate
Thu 06:46:00 PM 61.0079 -39.7836 266° West  Level FlightAware Approximate
Thu 06:47:00 PM 60.9980 -40.0338 263° West  Level FlightAware Approximate
Thu 06:48:00 PM 60.9826 -40.2827 263° West  Level FlightAware Approximate
Thu 06:49:00 PM 60.9669 -40.5314 263° West  Level FlightAware Approximate
Thu 06:50:00 PM 60.9506 -40.7798 262° West  Level FlightAware Approximate
Thu 06:51:00 PM 60.9339 -41.0280 262° West  Level FlightAware Approximate
Thu 06:52:00 PM 60.9168 -41.2759 262° West  Level FlightAware Approximate
Thu 06:53:00 PM 60.8992 -41.5236 262° West  Level FlightAware Approximate
Thu 06:54:00 PM 60.8811 -41.7709 262° West  Level FlightAware Approximate
Thu 06:55:00 PM 60.8626 -42.0180 261° West  Level FlightAware Approximate
Thu 06:56:00 PM 60.8436 -42.2648 261° West  Level FlightAware Approximate
Thu 06:57:00 PM 60.8242 -42.5113 261° West  Level FlightAware Approximate
Thu 06:58:00 PM 60.8043 -42.7575 261° West  Level FlightAware Approximate
Thu 06:59:00 PM 60.7840 -43.0034 260° West  Level FlightAware Approximate
Thu 07:00:00 PM 60.7632 -43.2489 260° West  Level FlightAware Approximate
Thu 07:01:00 PM 60.7420 -43.4942 260° West  Level FlightAware Approximate
Thu 07:02:00 PM 60.7203 -43.7391 260° West  Level FlightAware Approximate
Thu 07:03:00 PM 60.6982 -43.9837 260° West  Level FlightAware Approximate
Thu 07:04:00 PM 60.6757 -44.2280 259° West  Level FlightAware Approximate
Thu 07:05:00 PM 60.6527 -44.4719 259° West  Level FlightAware Approximate
Thu 07:06:00 PM 60.6292 -44.7154 259° West  Level FlightAware Approximate
Thu 07:07:00 PM 60.6053 -44.9586 259° West  Level FlightAware Approximate
Thu 07:08:00 PM 60.5810 -45.2014 259° West  Level FlightAware Approximate
Thu 07:09:00 PM 60.5562 -45.4439 258° West  Level FlightAware Approximate
Thu 07:10:00 PM 60.5310 -45.6860 258° West  Level FlightAware Approximate
Thu 07:11:00 PM 60.5054 -45.9277 258° West  Level FlightAware Approximate
Thu 07:12:00 PM 60.4793 -46.1690 258° West  Level FlightAware Approximate
Thu 07:13:00 PM 60.4528 -46.4099 258° West  Level FlightAware Approximate
Thu 07:14:00 PM 60.4259 -46.6505 257° West  Level FlightAware Approximate
Thu 07:15:00 PM 60.3985 -46.8906 257° West  Level FlightAware Approximate
Thu 07:16:00 PM 60.3707 -47.1303 257° West  Level FlightAware Approximate
Thu 07:17:00 PM 60.3424 -47.3696 257° West  Level FlightAware Approximate
Thu 07:18:00 PM 60.3138 -47.6085 256° West  Level FlightAware Approximate
Thu 07:19:00 PM 60.2847 -47.8470 256° West  Level FlightAware Approximate
Thu 07:20:00 PM 60.2551 -48.0851 256° West  Level FlightAware Approximate
Thu 07:21:00 PM 60.2252 -48.3227 256° West  Level FlightAware Approximate
Thu 07:22:00 PM 60.1948 -48.5599 256° West  Level FlightAware Approximate
Thu 07:23:00 PM 60.1640 -48.7966 255° West  Level FlightAware Approximate
Thu 07:24:00 PM 60.1328 -49.0329 255° West  Level FlightAware Approximate
Thu 07:25:00 PM 60.1012 -49.2687 255° West  Level FlightAware Approximate
Thu 07:26:00 PM 60.0691 -49.5041 255° West  Level FlightAware Approximate
Thu 07:27:00 PM 60.0366 -49.7390 255° West  Level FlightAware Approximate
Thu 07:28:00 PM 60.0037 -49.9735 254° West  Level FlightAware Approximate
Thu 07:29:00 PM 59.9582 -50.1988 247° West  Level FlightAware Approximate
Thu 07:30:00 PM 59.9106 -50.4224 247° West  Level FlightAware Approximate
Thu 07:31:00 PM 59.8627 -50.6454 247° West  Level FlightAware Approximate
Thu 07:32:00 PM 59.8144 -50.8677 247° West  Level FlightAware Approximate
Thu 07:33:00 PM 59.7658 -51.0894 247° West  Level FlightAware Approximate
Thu 07:34:00 PM 59.7167 -51.3104 246° West  Level FlightAware Approximate
Thu 07:35:00 PM 59.6673 -51.5307 246° West  Level FlightAware Approximate
Thu 07:36:00 PM 59.6176 -51.7505 246° West  Level FlightAware Approximate
Thu 07:37:00 PM 59.5674 -51.9695 246° West  Level FlightAware Approximate
Thu 07:38:00 PM 59.5169 -52.1879 246° West  Level FlightAware Approximate
Thu 07:39:00 PM 59.4661 -52.4057 245° Southwest  Level FlightAware Approximate
Thu 07:40:00 PM 59.4148 -52.6228 245° Southwest  Level FlightAware Approximate
Thu 07:41:00 PM 59.3632 -52.8392 245° Southwest  Level FlightAware Approximate
Thu 07:42:00 PM 59.3113 -53.0550 245° Southwest  Level FlightAware Approximate
Thu 07:43:00 PM 59.2590 -53.2701 245° Southwest  Level FlightAware Approximate
Thu 07:44:00 PM 59.2063 -53.4846 244° Southwest  Level FlightAware Approximate
Thu 07:45:00 PM 59.1533 -53.6984 244° Southwest  Level FlightAware Approximate
Thu 07:46:00 PM 59.1000 -53.9115 244° Southwest  Level FlightAware Approximate
Thu 07:47:00 PM 59.0659 -54.1338 254° West  Level FlightAware Approximate
Thu 07:48:00 PM 59.0315 -54.3556 253° West  Level FlightAware Approximate
Thu 07:48:59 PM 58.8833 -56.0833 252° West 430 495 32,000  Level Gander Center
Thu 07:49:00 PM 58.9967 -54.5770 253° West  Level FlightAware Approximate
Thu 07:49:59 PM 58.8500 -56.2833 252° West 430 495 32,000  Level Gander Center
Thu 07:50:00 PM 58.9616 -54.7980 253° West  Level FlightAware Approximate
Thu 07:50:59 PM 58.7833 -56.5167 241° Southwest 430 495 32,000  Level Gander Center
Thu 07:51:00 PM 58.9260 -55.0185 253° West  Level FlightAware Approximate
Thu 07:51:59 PM 58.7333 -56.6833 240° Southwest 430 495 32,000  Level Gander Center
Thu 07:52:00 PM 58.8901 -55.2385 253° West  Level FlightAware Approximate
Thu 07:52:59 PM 58.6833 -56.8833 244° Southwest 430 495 32,000  Level Gander Center
Thu 07:53:00 PM 58.8538 -55.4581 252° West  Level FlightAware Approximate
Thu 07:54:00 PM 58.8172 -55.6772 252° West  Level FlightAware Approximate
Thu 07:54:59 PM 58.5500 -57.2833 238° Southwest 440 506 32,000  Level Gander Center
Thu 07:55:59 PM 58.4667 -57.4500 226° Southwest 440 506 32,000  Level Gander Center
Thu 07:56:59 PM 58.4000 -57.6500 238° Southwest 440 506 32,000  Level Gander Center
Thu 07:57:59 PM 58.3500 -57.8500 245° Southwest 440 506 32,000  Level Gander Center
Thu 07:58:59 PM 58.2667 -58.0500 232° Southwest 440 506 32,000  Level Gander Center
Thu 07:59:59 PM 58.2000 -58.2500 238° Southwest 430 495 32,000  Level Gander Center
Thu 08:00:59 PM 58.1167 -58.4167 227° Southwest 430 495 32,000  Level Gander Center
Thu 08:02:59 PM 58.0000 -58.8000 240° Southwest 430 495 32,000  Level Gander Center
Thu 08:03:59 PM 57.9333 -58.9833 236° Southwest 420 483 32,000  Level Gander Center
Thu 08:05:42 PM 57.8000 -59.2333 225° Southwest 430 495 32,000  Level Montreal Center
Thu 08:06:42 PM 57.7333 -59.4333 238° Southwest 420 483 32,000  Level Montreal Center
Thu 08:07:42 PM 57.6667 -59.6167 236° Southwest 420 483 32,000  Level Montreal Center
Thu 08:08:42 PM 57.6167 -59.7833 241° Southwest 420 483 32,000  Level Montreal Center
Thu 08:09:42 PM 57.5333 -59.9667 230° Southwest 420 483 32,000  Level Montreal Center
Thu 08:10:42 PM 57.4667 -60.1333 233° Southwest 410 472 32,000  Level Montreal Center
Thu 08:11:42 PM 57.4000 -60.3167 236° Southwest 410 472 32,000  Level Montreal Center
Thu 08:12:42 PM 57.3333 -60.4667 231° Southwest 410 472 32,000  Level Montreal Center
Thu 08:13:42 PM 57.2667 -60.6500 236° Southwest 410 472 32,000  Level Montreal Center
Thu 08:14:42 PM 57.2000 -60.8167 234° Southwest 400 460 32,000  Level Montreal Center
Thu 08:15:42 PM 57.1333 -60.9667 231° Southwest 400 460 32,000  Level Montreal Center
Thu 08:16:42 PM 57.0667 -61.1500 236° Southwest 400 460 32,000  Level Montreal Center
Thu 08:17:42 PM 57.0000 -61.3000 231° Southwest 400 460 32,000  Level Montreal Center
Thu 08:18:42 PM 56.9333 -61.4500 231° Southwest 400 460 32,000  Level Montreal Center
Thu 08:19:42 PM 56.8500 -61.6333 230° Southwest 400 460 32,000  Level Montreal Center
Thu 08:20:42 PM 56.8000 -61.7833 239° Southwest 400 460 32,000  Level Montreal Center
Thu 08:21:42 PM 56.7333 -61.9333 231° Southwest 400 460 32,000  Level Montreal Center
Thu 08:22:42 PM 56.6667 -62.1167 237° Southwest 400 460 32,000  Level Montreal Center
Thu 08:23:42 PM 56.5833 -62.2667 225° Southwest 400 460 32,000  Level Montreal Center
Thu 08:24:42 PM 56.5167 -62.4167 231° Southwest 400 460 32,000  Level Montreal Center
Thu 08:25:42 PM 56.4667 -62.5833 242° Southwest 370 426 32,000  Level Montreal Center
Thu 08:26:42 PM 56.4000 -62.7333 231° Southwest 390 449 32,000  Level Montreal Center
Thu 08:27:42 PM 56.3333 -62.8833 231° Southwest 400 460 32,000  Level Montreal Center
Thu 08:28:42 PM 56.2667 -63.0667 237° Southwest 400 460 32,000  Level Montreal Center
Thu 08:29:42 PM 56.1833 -63.2000 222° Southwest 390 449 32,000  Level Montreal Center
Thu 08:30:42 PM 56.1167 -63.3500 231° Southwest 390 449 32,000  Level Montreal Center
Thu 08:31:42 PM 56.0500 -63.5000 232° Southwest 400 460 32,000  Level Montreal Center
Thu 08:32:42 PM 55.9833 -63.6667 234° Southwest 400 460 32,000  Level Montreal Center
Thu 08:33:42 PM 55.9167 -63.8167 232° Southwest 400 460 32,000  Level Montreal Center
Thu 08:34:42 PM 55.8333 -63.9667 225° Southwest 400 460 32,000  Level Montreal Center
Thu 08:35:42 PM 55.7667 -64.1333 235° Southwest 400 460 32,000  Level Montreal Center
Thu 08:36:42 PM 55.7000 -64.2667 228° Southwest 390 449 32,000  Level Montreal Center
Thu 08:37:42 PM 55.6333 -64.4167 232° Southwest 390 449 32,000  Level Montreal Center
Thu 08:38:42 PM 55.5667 -64.5833 235° Southwest 400 460 32,000  Level Montreal Center
Thu 08:39:42 PM 55.4833 -64.7333 226° Southwest 390 449 32,000  Level Montreal Center
Thu 08:40:42 PM 55.4167 -64.8667 229° Southwest 400 460 32,000  Level Montreal Center
Thu 08:41:42 PM 55.3500 -65.0333 235° Southwest 400 460 32,000  Level Montreal Center
Thu 08:42:42 PM 55.2667 -65.1833 226° Southwest 400 460 32,000  Level Montreal Center
Thu 08:43:42 PM 55.1833 -65.3500 229° Southwest 400 460 32,000  Level Montreal Center
Thu 08:44:42 PM 55.1333 -65.4833 237° Southwest 400 460 32,000  Level Montreal Center
Thu 08:45:42 PM 55.0333 -65.6167 217° Southwest 410 472 32,000  Level Montreal Center
Thu 08:46:42 PM 54.9667 -65.7833 235° Southwest 400 460 32,000  Level Montreal Center
Thu 08:47:42 PM 54.9000 -65.9333 232° Southwest 400 460 32,000  Level Montreal Center
Thu 08:48:43 PM 54.8167 -66.0667 223° Southwest 400 460 32,000  Level Montreal Center
Thu 08:49:42 PM 54.7500 -66.2333 235° Southwest 420 483 32,000  Level Montreal Center
Thu 08:50:43 PM 54.6833 -66.3667 229° Southwest 410 472 32,000  Level Montreal Center
Thu 08:51:42 PM 54.6000 -66.5167 226° Southwest 380 437 32,000  Level Montreal Center
Thu 08:52:43 PM 54.5333 -66.6667 233° Southwest 410 472 32,000  Level Montreal Center
Thu 08:53:43 PM 54.4500 -66.8000 223° Southwest 410 472 32,000  Level Montreal Center
Thu 08:54:43 PM 54.3667 -66.9500 226° Southwest 410 472 32,000  Level Montreal Center
Thu 08:55:43 PM 54.3000 -67.1167 236° Southwest 410 472 32,000  Level Montreal Center
Thu 08:56:43 PM 54.2167 -67.2500 223° Southwest 410 472 32,000  Level Montreal Center
Thu 08:57:43 PM 54.1500 -67.4167 236° Southwest 410 472 32,000  Level Montreal Center
Thu 08:58:43 PM 54.0667 -67.5500 223° Southwest 410 472 32,000  Level Montreal Center
Thu 08:59:43 PM 54.0000 -67.6667 226° Southwest 410 472 32,000  Level Montreal Center
Thu 09:00:43 PM 53.9167 -67.8333 230° Southwest 410 472 32,000  Level Montreal Center
Thu 09:01:43 PM 53.8333 -67.9667 223° Southwest 410 472 32,000  Level Montreal Center
Thu 09:02:42 PM 53.7500 -68.1167 227° Southwest 410 472 32,000  Level Montreal Center
Thu 09:03:42 PM 53.6833 -68.2500 230° Southwest 420 483 32,000  Level Montreal Center
Thu 09:04:42 PM 53.6000 -68.4000 227° Southwest 410 472 32,000  Level Montreal Center
Thu 09:05:43 PM 53.5333 -68.5333 230° Southwest 420 483 32,000  Level Montreal Center
Thu 09:06:43 PM 53.4333 -68.6833 222° Southwest 420 483 32,000  Level Montreal Center
Thu 09:07:42 PM 53.3667 -68.8167 230° Southwest 420 483 32,000  Level Montreal Center
Thu 09:08:43 PM 53.2833 -68.9667 227° Southwest 420 483 32,000  Level Montreal Center
Thu 09:09:43 PM 53.2167 -69.1167 233° Southwest 420 483 32,000  Level Montreal Center
Thu 09:10:42 PM 53.1333 -69.2500 224° Southwest 420 483 32,000  Level Montreal Center
Thu 09:11:42 PM 53.0333 -69.4000 222° Southwest 420 483 32,000  Level Montreal Center
Thu 09:12:42 PM 52.9667 -69.5500 234° Southwest 420 483 32,000  Level Montreal Center
Thu 09:13:43 PM 52.8667 -69.6833 219° Southwest 420 483 32,000  Level Montreal Center
Thu 09:14:42 PM 52.8000 -69.8333 234° Southwest 430 495 32,000  Level Montreal Center
Thu 09:15:42 PM 52.7167 -69.9833 228° Southwest 430 495 32,000  Level Montreal Center
Thu 09:16:42 PM 52.6167 -70.1000 215° Southwest 430 495 32,000  Level Montreal Center
Thu 09:17:42 PM 52.5500 -70.2500 234° Southwest 430 495 32,000  Level Montreal Center
Thu 09:18:42 PM 52.4667 -70.4000 228° Southwest 420 483 32,000  Level Montreal Center
Thu 09:19:42 PM 52.3667 -70.5333 219° Southwest 420 483 32,000  Level Montreal Center
Thu 09:20:42 PM 52.3000 -70.6833 234° Southwest 410 472 32,000  Level Montreal Center
Thu 09:21:42 PM 52.2167 -70.8000 221° Southwest 410 472 32,000  Level Montreal Center
Thu 09:22:42 PM 52.1333 -70.9167 221° Southwest 410 472 32,000  Level Montreal Center
Thu 09:23:42 PM 52.0333 -71.0333 216° Southwest 400 460 32,000  Level Montreal Center
Thu 09:24:42 PM 51.9667 -71.1500 227° Southwest 390 449 32,000  Level Montreal Center
Thu 09:25:42 PM 51.8833 -71.2667 221° Southwest 400 460 32,000  Level Montreal Center
Thu 09:26:42 PM 51.8000 -71.3833 221° Southwest 390 449 32,000  Level Montreal Center
Thu 09:27:42 PM 51.7000 -71.5000 216° Southwest 400 460 32,000  Level Montreal Center
Thu 09:28:42 PM 51.6333 -71.6167 227° Southwest 400 460 32,000  Level Montreal Center
Thu 09:29:42 PM 51.5500 -71.7333 221° Southwest 400 460 32,000  Level Montreal Center
Thu 09:30:42 PM 51.4500 -71.8500 216° Southwest 400 460 32,000  Level Montreal Center
Thu 09:31:42 PM 51.3667 -71.9667 221° Southwest 400 460 32,000  Level Montreal Center
Thu 09:32:42 PM 51.2833 -72.0833 221° Southwest 400 460 32,000  Level Montreal Center
Thu 09:33:42 PM 51.2000 -72.2000 221° Southwest 400 460 32,000  Level Montreal Center
Thu 09:34:42 PM 51.1333 -72.3167 228° Southwest 400 460 32,000  Level Montreal Center
Thu 09:35:42 PM 51.0333 -72.4333 216° Southwest 400 460 32,000  Level Montreal Center
Thu 09:36:42 PM 50.9500 -72.5500 221° Southwest 400 460 32,000  Level Montreal Center
Thu 09:37:42 PM 50.8500 -72.6833 220° Southwest 410 472 32,000  Level Montreal Center
Thu 09:38:42 PM 50.7667 -72.8000 222° Southwest 410 472 32,000  Level Montreal Center
Thu 09:39:42 PM 50.6667 -72.9167 216° Southwest 410 472 32,000  Level Montreal Center
Thu 09:40:42 PM 50.6000 -73.0167 224° Southwest 410 472 32,000  Level Montreal Center
Thu 09:41:42 PM 50.5167 -73.1333 222° Southwest 410 472 32,000  Level Montreal Center
Thu 09:42:42 PM 50.4167 -73.2500 217° Southwest 410 472 32,000  Level Montreal Center
Thu 09:43:42 PM 50.3333 -73.3500 217° Southwest 410 472 32,000  Level Montreal Center
Thu 09:44:42 PM 50.2500 -73.4667 222° Southwest 410 472 32,000  Level Montreal Center
Thu 09:45:42 PM 50.1500 -73.5833 217° Southwest 410 472 32,000  Level Montreal Center
Thu 09:46:42 PM 50.0667 -73.7167 226° Southwest 410 472 32,000  Level Montreal Center
Thu 09:47:42 PM 49.9667 -73.8167 213° Southwest 410 472 32,000  Level Montreal Center
Thu 09:48:42 PM 49.8833 -73.9333 222° Southwest 410 472 32,000  Level Montreal Center
Thu 09:49:42 PM 49.8000 -74.0333 218° Southwest 410 472 32,000  Level Montreal Center
Thu 09:50:42 PM 49.7000 -74.1500 217° Southwest 410 472 32,000  Level Montreal Center
Thu 09:51:42 PM 49.6333 -74.2500 224° Southwest 410 472 32,000  Level Montreal Center
Thu 09:52:42 PM 49.5500 -74.3667 222° Southwest 410 472 32,000  Level Montreal Center
Thu 09:53:42 PM 49.4500 -74.4667 213° Southwest 410 472 32,000  Level Montreal Center
Thu 09:54:42 PM 49.3667 -74.6000 226° Southwest 410 472 32,000  Level Montreal Center
Thu 09:55:42 PM 49.2833 -74.7000 218° Southwest 410 472 32,000  Level Montreal Center
Thu 09:56:42 PM 49.1833 -74.8167 217° Southwest 410 472 32,000  Level Montreal Center
Thu 09:57:42 PM 49.1000 -74.9167 218° Southwest 410 472 32,000  Level Montreal Center
Thu 09:58:42 PM 49.0000 -75.0167 213° Southwest 410 472 32,000  Level Montreal Center
Thu 09:59:42 PM 48.9167 -75.1167 218° Southwest 410 472 32,000  Level Montreal Center
Thu 10:00:42 PM 48.8167 -75.2500 221° Southwest 410 472 32,000  Level Montreal Center
Thu 10:01:42 PM 48.7333 -75.3500 218° Southwest 410 472 32,000  Level Montreal Center
Thu 10:02:42 PM 48.6333 -75.4500 213° Southwest 410 472 32,000  Level Montreal Center
Thu 10:03:42 PM 48.5500 -75.5667 223° Southwest 410 472 32,000  Level Montreal Center
Thu 10:04:42 PM 48.4500 -75.6667 214° Southwest 410 472 32,000  Level Montreal Center
Thu 10:05:42 PM 48.3667 -75.7833 223° Southwest 410 472 32,000  Level Montreal Center
Thu 10:06:42 PM 48.2833 -75.8833 219° Southwest 410 472 32,000  Level Montreal Center
Thu 10:07:42 PM 48.1833 -76.0000 218° Southwest 410 472 32,000  Level Montreal Center
Thu 10:08:42 PM 48.1000 -76.1000 219° Southwest 410 472 32,000  Level Montreal Center
Thu 10:09:42 PM 47.9833 -76.2000 210° Southwest 410 472 32,000  Level Montreal Center
Thu 10:15:58 PM 47.7870 -76.4470 210° Southwest 414 476 32,000  Level FlightAware ADS-B
Thu 10:17:34 PM 47.5070 -76.7600 217° Southwest 410 472 32,000  Level FlightAware ADS-B
Thu 10:18:49 PM 47.1750 -77.1250 217° Southwest 403 464 32,000  Level FlightAware ADS-B
Thu 10:19:12 PM 47.3490 -76.9350 36° Northeast 407 468 32,000  Level FlightAware ADS-B
Thu 10:19:43 PM 47.3280 -76.9580 217° Southwest 408 470 32,000  Level FlightAware ADS-B
Thu 10:20:18 PM 47.2600 -77.0320 216° Southwest 407 468 32,000  Level FlightAware ADS-B
Thu 10:20:54 PM 47.2310 -77.0640 217° Southwest 406 467 32,000  Level FlightAware ADS-B
Thu 10:21:31 PM 46.9350 -77.3860 217° Southwest 399 459 32,000  Level FlightAware ADS-B
Thu 10:21:58 PM 47.1770 -77.1240 36° Northeast 404 465 32,000  Level FlightAware ADS-B
Thu 10:22:59 PM 47.0300 -77.2830 216° Southwest 401 461 32,000  Level FlightAware ADS-B
Thu 10:24:04 PM 46.7070 -77.6300 216° Southwest 394 453 32,000  Level FlightAware ADS-B
Thu 10:24:36 PM 46.6620 -77.6790 217° Southwest 394 453 32,000  Level FlightAware ADS-B
Thu 10:24:59 PM 46.6270 -77.7160 216° Southwest 392 451 32,000  Level FlightAware ADS-B
Thu 10:25:39 PM 46.5700 -77.7760 216° Southwest 391 450 32,000  Level FlightAware ADS-B
Thu 10:26:16 PM 46.5160 -77.8330 216° Southwest 390 449 32,000  Level FlightAware ADS-B
Thu 10:26:49 PM 46.4670 -77.8850 216° Southwest 390 449 32,000  Level FlightAware ADS-B
Thu 10:27:45 PM 46.3890 -77.9680 216° Southwest 387 445 32,000  Level FlightAware ADS-B
Thu 10:28:17 PM 46.3430 -78.0160 216° Southwest 387 445 32,000  Level FlightAware ADS-B
Thu 10:28:44 PM 46.3020 -78.0590 216° Southwest 387 445 32,000  Level FlightAware ADS-B
Thu 10:29:34 PM 46.2300 -78.1340 216° Southwest 388 447 32,000  Level FlightAware ADS-B
Thu 10:30:26 PM 46.1540 -78.2140 216° Southwest 388 447 32,000  Level FlightAware ADS-B
Thu 10:30:47 PM 46.1230 -78.2460 216° Southwest 387 445 32,000  Level FlightAware ADS-B
Thu 10:31:43 PM 46.0430 -78.3280 215° Southwest 386 444 32,000  Level FlightAware ADS-B
Thu 10:32:11 PM 46.0030 -78.3700 216° Southwest 386 444 32,000  Level FlightAware ADS-B
Thu 10:33:11 PM 45.9150 -78.4610 216° Southwest 385 443 32,000  Level FlightAware ADS-B
Thu 10:33:40 PM 45.8720 -78.5050 215° Southwest 384 442 32,000  Level FlightAware ADS-B
Thu 10:34:12 PM 45.8250 -78.5530 215° Southwest 382 440 32,000  Level FlightAware ADS-B
Thu 10:35:05 PM 45.7510 -78.6290 216° Southwest 380 437 32,000  Level FlightAware ADS-B
Thu 10:35:40 PM 45.7010 -78.6810 216° Southwest 379 436 32,000  Level FlightAware ADS-B
Thu 10:36:31 PM 45.6270 -78.7560 215° Southwest 378 435 32,000  Level FlightAware ADS-B
Thu 10:36:55 PM 45.5930 -78.7900 215° Southwest 377 434 32,000  Level FlightAware ADS-B
Thu 10:37:32 PM 45.5400 -78.8430 215° Southwest 377 434 32,000  Level FlightAware ADS-B
Thu 10:38:23 PM 45.4700 -78.9150 216° Southwest 375 432 32,000  Level FlightAware ADS-B
Thu 10:39:15 PM 45.3960 -78.9880 215° Southwest 375 432 32,000  Level FlightAware ADS-B
Thu 10:40:12 PM 45.3150 -79.0700 215° Southwest 374 430 32,000  Level FlightAware ADS-B
Thu 10:41:06 PM 45.2370 -79.1480 215° Southwest 374 430 32,000  Level FlightAware ADS-B
Thu 10:41:39 PM 45.1930 -79.1920 215° Southwest 373 429 32,000  Level FlightAware ADS-B
Thu 10:42:07 PM 45.1520 -79.2330 215° Southwest 373 429 32,000  Level FlightAware ADS-B
Thu 10:43:04 PM 45.0720 -79.3130 215° Southwest 370 426 32,000  Level FlightAware ADS-B
Thu 10:44:04 PM 44.9880 -79.3960 215° Southwest 366 421 32,000  Level FlightAware ADS-B
Thu 10:44:44 PM 44.9340 -79.4490 215° Southwest 367 422 32,000  Level FlightAware ADS-B
Thu 10:45:36 PM 44.8610 -79.5200 215° Southwest 366 421 32,000  Level FlightAware ADS-B
Thu 10:46:14 PM 44.8070 -79.5740 215° Southwest 367 422 32,000  Level FlightAware ADS-B
Thu 10:47:00 PM 44.7440 -79.6360 215° Southwest 367 422 32,000  Level FlightAware ADS-B
Thu 10:47:52 PM 44.6720 -79.7050 214° Southwest 368 423 32,000  Level FlightAware ADS-B
Thu 10:48:48 PM 44.5930 -79.7820 215° Southwest 367 422 32,000  Level FlightAware ADS-B
Thu 10:49:38 PM 44.5210 -79.8490 214° Southwest 369 425 32,000  Level FlightAware ADS-B
Thu 10:50:26 PM 44.4520 -79.9100 212° Southwest 370 426 32,000  Level FlightAware ADS-B
Thu 10:51:15 PM 44.3810 -79.9740 213° Southwest 372 428 32,000  Level FlightAware ADS-B
Thu 10:52:11 PM 44.3000 -80.0470 213° Southwest 370 426 32,000  Level FlightAware ADS-B
Thu 10:52:49 PM 44.2460 -80.0960 213° Southwest 369 425 32,000  Level FlightAware ADS-B
Thu 10:53:49 PM 44.1600 -80.1720 212° Southwest 367 422 32,000  Level FlightAware ADS-B
Thu 10:54:50 PM 44.0730 -80.2500 213° Southwest 366 421 32,000  Level FlightAware ADS-B
Thu 10:55:38 PM 44.0050 -80.3100 212° Southwest 366 421 32,000  Level FlightAware ADS-B
Thu 10:56:34 PM 43.9240 -80.3810 212° Southwest 368 423 32,000  Level FlightAware ADS-B
Thu 10:57:07 PM 43.8790 -80.4210 213° Southwest 367 422 32,000  Level FlightAware ADS-B
Thu 10:58:07 PM 43.7910 -80.4980 212° Southwest 367 422 32,000  Level FlightAware ADS-B
Thu 10:58:55 PM 43.7220 -80.5590 213° Southwest 365 420 32,000  Level FlightAware ADS-B
Thu 10:59:51 PM 43.6440 -80.6270 212° Southwest 367 422 32,000  Level FlightAware ADS-B
Thu 11:00:44 PM 43.5660 -80.6950 212° Southwest 368 423 32,000 71 Level FlightAware ADS-B
Thu 11:01:16 PM 43.5220 -80.7330 212° Southwest 374 430 32,100  Climbing FlightAware ADS-B
Thu 11:01:44 PM 43.4810 -80.7680 212° Southwest 371 427 32,000 -92 Descending FlightAware ADS-B
Thu 11:02:21 PM 43.4250 -80.8170 212° Southwest 369 425 32,000  Level FlightAware ADS-B
Thu 11:03:13 PM 43.3510 -80.8810 212° Southwest 365 420 32,000  Level FlightAware ADS-B
Thu 11:04:13 PM 43.2670 -80.9530 212° Southwest 362 417 32,000  Level FlightAware ADS-B
Thu 11:04:58 PM 43.2020 -81.0080 212° Southwest 362 417 32,000  Level FlightAware ADS-B
Thu 11:05:51 PM 43.1280 -81.0720 212° Southwest 364 419 32,000  Level FlightAware ADS-B
Thu 11:06:15 PM 43.0910 -81.1040 212° Southwest 364 419 32,000  Level FlightAware ADS-B
Thu 11:07:15 PM 43.0060 -81.1700 210° Southwest 368 423 32,000  Level FlightAware ADS-B
Thu 11:07:45 PM 42.9590 -81.1990 204° Southwest 370 426 32,000  Level FlightAware ADS-B
Thu 11:08:31 PM 42.8870 -81.2420 204° Southwest 369 425 32,000  Level FlightAware ADS-B
Thu 11:09:31 PM 42.7930 -81.2990 204° Southwest 365 420 32,000  Level FlightAware ADS-B
Thu 11:09:58 PM 42.7510 -81.3260 205° Southwest 365 420 32,000  Level FlightAware ADS-B
Thu 11:10:45 PM 42.6790 -81.3700 204° Southwest 366 421 32,000  Level FlightAware ADS-B
Thu 11:11:36 PM 42.6000 -81.4190 205° Southwest 368 423 32,000  Level FlightAware ADS-B
Thu 11:12:14 PM 42.5410 -81.4550 204° Southwest 368 423 32,000  Level FlightAware ADS-B
Thu 11:12:59 PM 42.4710 -81.4970 204° Southwest 368 423 32,000  Level FlightAware ADS-B
Thu 11:13:31 PM 42.4210 -81.5270 204° Southwest 369 425 32,000  Level FlightAware ADS-B
Thu 11:14:20 PM 42.3440 -81.5740 204° Southwest 369 425 32,000  Level FlightAware ADS-B
Thu 11:15:12 PM 42.2630 -81.6230 204° Southwest 369 425 32,000  Level FlightAware ADS-B
Thu 11:15:44 PM 42.2140 -81.6530 204° Southwest 370 426 32,000  Level FlightAware ADS-B
Thu 11:16:43 PM 42.1210 -81.7090 204° Southwest 371 427 32,000  Level FlightAware ADS-B
Thu 11:17:23 PM 42.0590 -81.7460 204° Southwest 370 426 32,000  Level FlightAware ADS-B
Thu 11:18:24 PM 41.9650 -81.8030 204° Southwest 368 423 32,000  Level FlightAware ADS-B
Thu 11:19:20 PM 41.8760 -81.8560 204° Southwest 368 423 32,000  Level FlightAware ADS-B
Thu 11:20:19 PM 41.7850 -81.9110 204° Southwest 367 422 32,000  Level FlightAware ADS-B
Thu 11:20:51 PM 41.7350 -81.9430 206° Southwest 366 421 32,000  Level FlightAware ADS-B
Thu 11:21:48 PM 41.6480 -81.9990 206° Southwest 365 420 32,000  Level FlightAware ADS-B
Thu 11:22:10 PM 41.6140 -82.0200 205° Southwest 365 420 32,000  Level FlightAware ADS-B
Thu 11:23:03 PM 41.5350 -82.0700 205° Southwest 365 420 32,000  Level FlightAware ADS-B
Thu 11:23:57 PM 41.4520 -82.1210 205° Southwest 366 421 32,000  Level FlightAware ADS-B
Thu 11:24:41 PM 41.3850 -82.1640 206° Southwest 367 422 32,000  Level FlightAware ADS-B
Thu 11:25:33 PM 41.3070 -82.2130 205° Southwest 366 421 32,000 -505 Level FlightAware ADS-B
Thu 11:26:28 PM 41.2200 -82.2670 205° Southwest 363 418 31,100 -1,038 Descending FlightAware ADS-B
Thu 11:27:17 PM 41.1460 -82.3130 205° Southwest 363 418 30,200 -635 Descending FlightAware ADS-B
Thu 11:28:12 PM 41.0620 -82.3650 205° Southwest 360 414 30,000 -103 Descending FlightAware ADS-B
Thu 11:29:13 PM 40.9700 -82.4220 205° Southwest 360 414 30,000  Level FlightAware ADS-B
Thu 11:30:11 PM 40.8830 -82.4760 205° Southwest 361 415 30,000  Level FlightAware ADS-B
Thu 11:31:11 PM 40.7910 -82.5320 205° Southwest 363 418 30,000  Level FlightAware ADS-B
Thu 11:32:13 PM 40.7020 -82.5870 205° Southwest 362 417 30,000  Level FlightAware ADS-B
Thu 11:33:07 PM 40.6160 -82.6400 205° Southwest 361 415 30,000  Level FlightAware ADS-B
Thu 11:33:39 PM 40.5680 -82.6690 205° Southwest 360 414 30,000  Level FlightAware ADS-B
Thu 11:34:23 PM 40.5000 -82.7110 205° Southwest 361 415 30,000  Level FlightAware ADS-B
Thu 11:35:15 PM 40.4220 -82.7580 205° Southwest 362 417 30,000  Level FlightAware ADS-B
Thu 11:36:08 PM 40.3400 -82.8080 205° Southwest 363 418 30,000  Level FlightAware ADS-B
Thu 11:36:47 PM 40.2820 -82.8430 205° Southwest 365 420 30,000 -288 Level FlightAware ADS-B
Thu 11:37:52 PM 40.1820 -82.9030 205° Southwest 351 404 29,500 -849 Descending FlightAware ADS-B
Thu 11:38:33 PM 40.1230 -82.9380 204° Southwest 341 392 28,500 -1,979 Descending FlightAware ADS-B
Thu 11:39:29 PM 40.0430 -82.9870 205° Southwest 346 398 26,300 -2,541 Descending FlightAware ADS-B
Thu 11:39:58 PM 39.9990 -83.0130 204° Southwest 352 405 24,900 -2,200 Descending FlightAware ADS-B
Thu 11:40:29 PM 39.9610 -83.0500 217° Southwest 342 394 24,100 -1,149 Descending FlightAware ADS-B
Thu 11:40:45 PM 39.9470 -83.0780 237° Southwest 342 394 24,000 -750 Descending FlightAware ADS-B
Thu 11:41:41 PM 39.9050 -83.1780 241° Southwest 334 384 23,200 -1,358 Descending FlightAware ADS-B
Thu 11:42:31 PM 39.8690 -83.2640 241° Southwest 328 377 21,600 -1,957 Descending FlightAware ADS-B
Thu 11:43:13 PM 39.8370 -83.3390 241° Southwest 334 384 20,200 -1,592 Descending FlightAware ADS-B
Thu 11:44:09 PM 39.7960 -83.4350 241° Southwest 325 374 19,000 -1,248 Descending FlightAware ADS-B
Thu 11:44:54 PM 39.7620 -83.5140 241° Southwest 326 375 18,100 -977 Descending FlightAware ADS-B
Thu 11:45:35 PM 39.7340 -83.5820 242° Southwest 319 367 17,600 -1,059 Descending FlightAware ADS-B
Thu 11:46:19 PM 39.7030 -83.6540 241° Southwest 315 362 16,600 -1,333 Descending FlightAware ADS-B
Thu 11:47:23 PM 39.6580 -83.7570 240° Southwest 295 339 15,200 -1,267 Descending FlightAware ADS-B
Thu 11:47:49 PM 39.6410 -83.7970 241° Southwest 286 329 14,700 -1,333 Descending FlightAware ADS-B
Thu 11:48:44 PM 39.6060 -83.8780 241° Southwest 274 315 13,400 -1,696 Descending FlightAware ADS-B
Thu 11:49:21 PM 39.5810 -83.9270 237° Southwest 282 325 12,100 -1,224 Descending FlightAware ADS-B
Thu 11:50:22 PM 39.5280 -84.0010 227° Southwest 277 319 11,400 -383 Descending FlightAware ADS-B
Thu 11:50:55 PM 39.4960 -84.0390 223° Southwest 284 327 11,500  Climbing FlightAware ADS-B
Thu 11:51:15 PM 39.4700 -84.0470 193° South 292 336 11,400 -86 Descending FlightAware ADS-B
Thu 11:52:05 PM 39.4120 -84.0500 182° South 292 336 11,400  Level FlightAware ADS-B
Thu 11:52:53 PM 39.3570 -84.0540 183° South 292 336 11,400  Level FlightAware ADS-B
Thu 11:53:05 PM 39.3440 -84.0550 183° South 292 336 11,400 -907 Level FlightAware ADS-B
Thu 11:57:11 PM 39.0930 -83.9770 166° South 199 229 7,500 -1,101 Descending FlightAware ADS-B
Thu 11:57:43 PM 39.0833 -84.0167 166° South 205 236 6,300 -1,325 Descending Cincinnati TRACON
Thu 11:58:28 PM 39.0672 -84.0597 244° Southwest 199 229 5,800 -736 Descending Indianapolis Center
Thu 11:59:29 PM 39.0483 -84.1136 246° West 179 206 5,000 -397 Descending Indianapolis Center
Fri 12:00:29 AM 39.0428 -84.1619 262° West 160 184 5,000  Level Indianapolis Center
Fri 12:01:30 AM 39.0433 -84.2183 271° West 157 181 5,000  Level Indianapolis Center
Fri 12:02:31 AM 39.0447 -84.2731 272° West 156 180 5,000  Level Indianapolis Center
Fri 12:03:32 AM 39.0447 -84.3292 270° West 156 180 5,000  Level Indianapolis Center
Fri 12:04:32 AM 39.0447 -84.3836 270° West 154 177 5,000 -397 Level Indianapolis Center
Fri 12:05:33 AM 39.0450 -84.4383 270° West 154 177 4,200 -787 Descending Indianapolis Center
Fri 12:06:34 AM 39.0447 -84.4889 270° West 150 173 3,400 -815 Descending Indianapolis Center
Fri 12:08:37 AM 39.0500 -84.6000 274° West 141 162 1,700 -829 Descending Cincinnati TRACON

Login

Don't have an account? Register now (free) for customized features, flight alerts, and more!